Startpagina
METAR-TAF:

METAR-TAF

Vliegvelden :

Flughafen Weeze

Weeze, Duitsland

breedte: 51-36-09N, lengte: 006-08-32E, hoogte: 32 m

Actueel weer

Dit bericht is 22 minuten geleden gemaakt, om 21:50 UTC
Wind 2 kt uit het noorden
Temperatuur 22°C
Vochtigheid 46%
Druk 1013 hPa
Zicht 10 km of meer
geen wolken onder 1500 m en geen cumulonimbus

METAR: EDLV 162150Z 35002KT CAVOK 22/10 Q1013

Tijdstip: 00:12 (22:12 UTC)

Verwachting

Dit bericht is 5 uur en het 12 minuten geleden gemaakt, om 17:00 UTC
Verwachting geldig van 16 om 18 UTC tot 17 om 18 UTC
Wind 5 kt uit het noorden
Zicht 10 km of meer
geen wolken onder 1500 m en geen cumulonimbus
Wijzigt naar
van 16 om 18 UTC tot 16 om 21 UTC
Wind 3 kt uit variabele richting
Wijzigt naar
van 17 om 06 UTC tot 17 om 09 UTC
Wind 5 kt uit het westzuidwesten
Wijzigt naar
van 17 om 09 UTC tot 17 om 12 UTC
Wind 10 kt uit het westen

TAF: EDLV 161700Z 1618/1718 01005KT CAVOK BECMG 1618/1621 VRB03KT BECMG 1706/1709 24005KT BECMG 1709/1712 27010KT

Waarnemingen en weersverwachtingen van meer dan 4000 vliegvelden (METAR en TAF).

De beschikbare stations zijn de gele en rode punten op de kaart.

Ga met uw muis naar het station om de naam te zien.

Klik dan om waarnemingen en weersverwachtingen te zien.

kaart wijzigen: klik op de groene knoppen met een zwart kruis om in te zoomen, op de groene knop met een streepje om uit te zoomen of op de groene pijlen voor aangrenzende kaarten.


METAR-TAF: